Accueil
METAR-TAF:

METAR-TAF

Aéroports :

Aéroport international de Kansas City

Kansas City, Missouri, États-Unis

latitude: 39-17-50N, longitude: 094-43-50W, altitude: 312 m

Observation

Le bulletin a été fait il y a 39 minutes, à 17:53 UTC
Vent 3 kt de direction variable
Température 18°C
Humidité 52%
Pression 1020 hPa
Visibilité: 16.1 km
Nuages épars à une hauteur de 25000 ft

METAR: KMCI 221753Z VRB03KT 10SM SCT250 18/08 A3013 RMK AO2 SLP202 T01830078 10183 20067 58003

Heure: 13:32 (18:32 UTC)

Prévision

Le bulletin a été fait il y a 1 heure et 8 minutes, à 17:24 UTC
Prévision valable du 22 à 18 UTC au 23 à 18 UTC
Vent 6 kt de ouest/sud-ouest
Visibilité: 10 km
Ciel clair
A partir de 22 à 2300 UTC
Vent 6 kt de nord-est
Visibilité: 10 km
Quelques nuages à une hauteur de 25000 ft

TAF: KMCI 221724Z 2218/2318 24006KT P6SM SKC FM222300 04006KT P6SM FEW250

Observations et prévisions météorologiques de plus de 4000 aéroports (messages METAR et TAF).

Les stations disponibles sont représentées par des disques jaunes et rouges sur la carte.

Passer la souris dessus pour voir le nom de la station.

Cliquer dessus pour voir les observations et prévisions météorologiques.

Pour changer de carte: cliquez sur les boutons verts avec une croix noire pour zoomer, sur le bouton vert avec un tiret pour effectuer un zoom arrière, ou sur les flèches vertes pour les cartes adjacentes.


METAR-TAF: